sensor_id;sensor_type;location;lat;lon;timestamp;P1;durP1;ratioP1;P2;durP2;ratioP2
42000;SDS011;27689;48.390;10.856;2024-02-26T00:00:02;7.53;;;5.27;;
42000;SDS011;27689;48.390;10.856;2024-02-26T00:02:47;11.10;;;6.05;;
42000;SDS011;27689;48.390;10.856;2024-02-26T00:05:31;7.15;;;5.30;;
42000;SDS011;27689;48.390;10.856;2024-02-26T00:08:16;6.18;;;5.10;;
42000;SDS011;27689;48.390;10.856;2024-02-26T00:11:00;7.40;;;5.22;;
42000;SDS011;27689;48.390;10.856;2024-02-26T00:13:44;7.57;;;5.87;;
42000;SDS011;27689;48.390;10.856;2024-02-26T00:16:28;10.18;;;5.32;;
42000;SDS011;27689;48.390;10.856;2024-02-26T00:19:12;8.43;;;6.10;;
42000;SDS011;27689;48.390;10.856;2024-02-26T00:21:56;8.43;;;6.13;;
42000;SDS011;27689;48.390;10.856;2024-02-26T00:24:40;7.20;;;5.73;;
42000;SDS011;27689;48.390;10.856;2024-02-26T00:27:25;8.63;;;5.82;;
42000;SDS011;27689;48.390;10.856;2024-02-26T00:30:09;7.88;;;6.40;;
42000;SDS011;27689;48.390;10.856;2024-02-26T00:32:53;8.43;;;5.78;;
42000;SDS011;27689;48.390;10.856;2024-02-26T00:35:37;6.73;;;5.60;;
42000;SDS011;27689;48.390;10.856;2024-02-26T00:38:20;7.43;;;6.05;;
42000;SDS011;27689;48.390;10.856;2024-02-26T00:41:04;6.88;;;5.80;;
42000;SDS011;27689;48.390;10.856;2024-02-26T00:43:48;8.97;;;6.30;;
42000;SDS011;27689;48.390;10.856;2024-02-26T00:46:32;8.77;;;6.07;;
42000;SDS011;27689;48.390;10.856;2024-02-26T00:49:16;7.03;;;5.63;;
42000;SDS011;27689;48.390;10.856;2024-02-26T00:52:00;7.35;;;6.13;;
42000;SDS011;27689;48.390;10.856;2024-02-26T00:54:44;6.85;;;5.57;;
42000;SDS011;27689;48.390;10.856;2024-02-26T00:57:28;8.00;;;6.70;;
42000;SDS011;27689;48.390;10.856;2024-02-26T01:00:12;9.18;;;6.70;;
42000;SDS011;27689;48.390;10.856;2024-02-26T01:05:41;8.15;;;6.60;;
42000;SDS011;27689;48.390;10.856;2024-02-26T01:08:25;9.00;;;6.47;;
42000;SDS011;27689;48.390;10.856;2024-02-26T01:11:09;12.25;;;6.55;;
42000;SDS011;27689;48.390;10.856;2024-02-26T01:13:53;9.45;;;6.50;;
42000;SDS011;27689;48.390;10.856;2024-02-26T01:16:40;8.13;;;6.03;;
42000;SDS011;27689;48.390;10.856;2024-02-26T01:19:23;9.05;;;6.18;;
42000;SDS011;27689;48.390;10.856;2024-02-26T01:22:07;9.88;;;6.70;;
42000;SDS011;27689;48.390;10.856;2024-02-26T01:24:51;8.48;;;6.15;;
42000;SDS011;27689;48.390;10.856;2024-02-26T01:27:39;8.65;;;6.40;;
42000;SDS011;27689;48.390;10.856;2024-02-26T01:30:24;8.68;;;6.28;;
42000;SDS011;27689;48.390;10.856;2024-02-26T01:33:08;8.00;;;6.32;;
42000;SDS011;27689;48.390;10.856;2024-02-26T01:35:52;8.77;;;6.13;;
42000;SDS011;27689;48.390;10.856;2024-02-26T01:38:36;8.68;;;6.22;;
42000;SDS011;27689;48.390;10.856;2024-02-26T01:41:21;9.23;;;6.45;;
42000;SDS011;27689;48.390;10.856;2024-02-26T01:44:06;8.27;;;6.78;;
42000;SDS011;27689;48.390;10.856;2024-02-26T01:46:50;7.88;;;6.45;;
42000;SDS011;27689;48.390;10.856;2024-02-26T01:49:34;8.98;;;6.50;;
42000;SDS011;27689;48.390;10.856;2024-02-26T01:52:18;11.32;;;7.40;;
42000;SDS011;27689;48.390;10.856;2024-02-26T01:55:03;7.63;;;6.43;;
42000;SDS011;27689;48.390;10.856;2024-02-26T01:57:47;8.50;;;6.88;;
42000;SDS011;27689;48.390;10.856;2024-02-26T02:00:32;9.63;;;7.22;;
42000;SDS011;27689;48.390;10.856;2024-02-26T02:03:17;9.63;;;7.22;;
42000;SDS011;27689;48.390;10.856;2024-02-26T02:06:01;8.73;;;6.70;;
42000;SDS011;27689;48.390;10.856;2024-02-26T02:08:46;11.13;;;7.00;;
42000;SDS011;27689;48.390;10.856;2024-02-26T02:11:30;9.52;;;6.85;;
42000;SDS011;27689;48.390;10.856;2024-02-26T02:14:14;10.50;;;7.53;;
42000;SDS011;27689;48.390;10.856;2024-02-26T02:16:58;9.30;;;7.07;;
42000;SDS011;27689;48.390;10.856;2024-02-26T02:19:42;10.05;;;7.57;;
42000;SDS011;27689;48.390;10.856;2024-02-26T02:22:27;12.27;;;8.00;;
42000;SDS011;27689;48.390;10.856;2024-02-26T02:25:11;11.13;;;7.32;;
42000;SDS011;27689;48.390;10.856;2024-02-26T02:27:55;10.13;;;7.47;;
42000;SDS011;27689;48.390;10.856;2024-02-26T02:30:40;11.25;;;8.15;;
42000;SDS011;27689;48.390;10.856;2024-02-26T02:33:24;10.07;;;7.78;;
42000;SDS011;27689;48.390;10.856;2024-02-26T02:36:09;12.23;;;8.00;;
42000;SDS011;27689;48.390;10.856;2024-02-26T02:38:54;10.43;;;7.25;;
42000;SDS011;27689;48.390;10.856;2024-02-26T02:41:38;10.13;;;7.70;;
42000;SDS011;27689;48.390;10.856;2024-02-26T02:44:22;9.60;;;7.35;;
42000;SDS011;27689;48.390;10.856;2024-02-26T02:47:06;11.40;;;7.45;;
42000;SDS011;27689;48.390;10.856;2024-02-26T02:49:50;10.77;;;8.35;;
42000;SDS011;27689;48.390;10.856;2024-02-26T02:52:34;11.73;;;8.35;;
42000;SDS011;27689;48.390;10.856;2024-02-26T02:55:18;13.88;;;8.07;;
42000;SDS011;27689;48.390;10.856;2024-02-26T02:58:02;10.20;;;7.97;;
42000;SDS011;27689;48.390;10.856;2024-02-26T03:00:46;12.35;;;8.23;;
42000;SDS011;27689;48.390;10.856;2024-02-26T03:03:30;10.55;;;7.68;;
42000;SDS011;27689;48.390;10.856;2024-02-26T03:06:14;9.20;;;7.18;;
42000;SDS011;27689;48.390;10.856;2024-02-26T03:08:58;11.73;;;8.00;;
42000;SDS011;27689;48.390;10.856;2024-02-26T03:11:42;10.93;;;8.00;;
42000;SDS011;27689;48.390;10.856;2024-02-26T03:14:26;10.38;;;7.63;;
42000;SDS011;27689;48.390;10.856;2024-02-26T03:17:10;12.40;;;8.88;;
42000;SDS011;27689;48.390;10.856;2024-02-26T03:19:55;11.65;;;8.80;;
42000;SDS011;27689;48.390;10.856;2024-02-26T03:22:39;11.98;;;8.90;;
42000;SDS011;27689;48.390;10.856;2024-02-26T03:25:23;12.07;;;9.05;;
42000;SDS011;27689;48.390;10.856;2024-02-26T03:28:07;12.10;;;9.13;;
42000;SDS011;27689;48.390;10.856;2024-02-26T03:30:51;13.98;;;10.07;;
42000;SDS011;27689;48.390;10.856;2024-02-26T03:33:35;13.45;;;10.43;;
42000;SDS011;27689;48.390;10.856;2024-02-26T03:36:19;13.60;;;9.77;;
42000;SDS011;27689;48.390;10.856;2024-02-26T03:39:03;11.98;;;8.50;;
42000;SDS011;27689;48.390;10.856;2024-02-26T03:41:51;12.05;;;9.05;;
42000;SDS011;27689;48.390;10.856;2024-02-26T03:44:35;13.15;;;9.90;;
42000;SDS011;27689;48.390;10.856;2024-02-26T03:47:19;14.38;;;9.18;;
42000;SDS011;27689;48.390;10.856;2024-02-26T03:50:02;13.38;;;9.90;;
42000;SDS011;27689;48.390;10.856;2024-02-26T03:52:48;14.73;;;10.10;;
42000;SDS011;27689;48.390;10.856;2024-02-26T03:55:32;12.75;;;9.50;;
42000;SDS011;27689;48.390;10.856;2024-02-26T03:58:16;14.43;;;9.95;;
42000;SDS011;27689;48.390;10.856;2024-02-26T04:01:00;12.77;;;9.48;;
42000;SDS011;27689;48.390;10.856;2024-02-26T04:03:44;12.55;;;9.23;;
42000;SDS011;27689;48.390;10.856;2024-02-26T04:06:28;15.00;;;10.63;;
42000;SDS011;27689;48.390;10.856;2024-02-26T04:09:15;15.82;;;10.52;;
42000;SDS011;27689;48.390;10.856;2024-02-26T04:11:59;12.27;;;9.25;;
42000;SDS011;27689;48.390;10.856;2024-02-26T04:14:43;15.40;;;10.18;;
42000;SDS011;27689;48.390;10.856;2024-02-26T04:17:28;12.80;;;9.18;;
42000;SDS011;27689;48.390;10.856;2024-02-26T04:20:13;12.77;;;9.30;;
42000;SDS011;27689;48.390;10.856;2024-02-26T04:22:59;12.48;;;9.50;;
42000;SDS011;27689;48.390;10.856;2024-02-26T04:25:43;11.70;;;8.82;;
42000;SDS011;27689;48.390;10.856;2024-02-26T04:28:27;12.18;;;9.30;;
42000;SDS011;27689;48.390;10.856;2024-02-26T04:31:13;12.55;;;9.45;;
42000;SDS011;27689;48.390;10.856;2024-02-26T04:33:56;12.10;;;8.95;;
42000;SDS011;27689;48.390;10.856;2024-02-26T04:36:40;12.05;;;8.55;;
42000;SDS011;27689;48.390;10.856;2024-02-26T04:39:24;11.70;;;8.88;;
42000;SDS011;27689;48.390;10.856;2024-02-26T04:42:09;11.48;;;8.50;;
42000;SDS011;27689;48.390;10.856;2024-02-26T04:44:54;12.63;;;9.30;;
42000;SDS011;27689;48.390;10.856;2024-02-26T04:47:38;13.45;;;9.25;;
42000;SDS011;27689;48.390;10.856;2024-02-26T04:50:22;12.77;;;8.45;;
42000;SDS011;27689;48.390;10.856;2024-02-26T04:53:06;12.32;;;8.90;;
42000;SDS011;27689;48.390;10.856;2024-02-26T04:55:50;13.93;;;9.98;;
42000;SDS011;27689;48.390;10.856;2024-02-26T04:58:35;12.38;;;8.57;;
42000;SDS011;27689;48.390;10.856;2024-02-26T05:01:19;12.80;;;8.57;;
42000;SDS011;27689;48.390;10.856;2024-02-26T05:04:03;13.30;;;9.07;;
42000;SDS011;27689;48.390;10.856;2024-02-26T05:06:47;12.23;;;8.77;;
42000;SDS011;27689;48.390;10.856;2024-02-26T05:09:31;14.43;;;9.65;;
42000;SDS011;27689;48.390;10.856;2024-02-26T05:12:15;13.93;;;9.40;;
42000;SDS011;27689;48.390;10.856;2024-02-26T05:14:59;11.13;;;8.43;;
42000;SDS011;27689;48.390;10.856;2024-02-26T05:17:43;14.18;;;9.40;;
42000;SDS011;27689;48.390;10.856;2024-02-26T05:20:28;12.57;;;9.32;;
42000;SDS011;27689;48.390;10.856;2024-02-26T05:23:12;15.07;;;10.32;;
42000;SDS011;27689;48.390;10.856;2024-02-26T05:25:56;13.18;;;9.85;;
42000;SDS011;27689;48.390;10.856;2024-02-26T05:28:40;11.85;;;9.07;;
42000;SDS011;27689;48.390;10.856;2024-02-26T05:31:25;13.25;;;8.98;;
42000;SDS011;27689;48.390;10.856;2024-02-26T05:34:09;13.43;;;9.00;;
42000;SDS011;27689;48.390;10.856;2024-02-26T05:36:53;12.70;;;9.17;;
42000;SDS011;27689;48.390;10.856;2024-02-26T05:39:37;19.30;;;12.65;;
42000;SDS011;27689;48.390;10.856;2024-02-26T05:42:23;40.17;;;24.45;;
42000;SDS011;27689;48.390;10.856;2024-02-26T05:45:07;38.22;;;22.70;;
42000;SDS011;27689;48.390;10.856;2024-02-26T05:47:51;23.77;;;17.63;;
42000;SDS011;27689;48.390;10.856;2024-02-26T05:50:35;18.92;;;14.55;;
42000;SDS011;27689;48.390;10.856;2024-02-26T05:53:19;15.88;;;11.82;;
42000;SDS011;27689;48.390;10.856;2024-02-26T05:56:03;16.08;;;10.88;;
42000;SDS011;27689;48.390;10.856;2024-02-26T05:58:47;15.07;;;11.00;;
42000;SDS011;27689;48.390;10.856;2024-02-26T06:01:31;17.03;;;9.97;;
42000;SDS011;27689;48.390;10.856;2024-02-26T06:04:15;15.63;;;10.13;;
42000;SDS011;27689;48.390;10.856;2024-02-26T06:07:00;16.38;;;10.57;;
42000;SDS011;27689;48.390;10.856;2024-02-26T06:09:44;20.85;;;12.07;;
42000;SDS011;27689;48.390;10.856;2024-02-26T06:12:28;14.43;;;10.25;;
42000;SDS011;27689;48.390;10.856;2024-02-26T06:15:14;14.63;;;10.85;;
42000;SDS011;27689;48.390;10.856;2024-02-26T06:17:58;16.60;;;11.35;;
42000;SDS011;27689;48.390;10.856;2024-02-26T06:20:42;17.77;;;11.32;;
42000;SDS011;27689;48.390;10.856;2024-02-26T06:23:26;16.65;;;11.25;;
42000;SDS011;27689;48.390;10.856;2024-02-26T06:26:10;18.77;;;12.60;;
42000;SDS011;27689;48.390;10.856;2024-02-26T06:28:54;22.42;;;12.15;;
42000;SDS011;27689;48.390;10.856;2024-02-26T06:31:39;19.77;;;12.00;;
42000;SDS011;27689;48.390;10.856;2024-02-26T06:34:23;15.30;;;11.10;;
42000;SDS011;27689;48.390;10.856;2024-02-26T06:37:10;17.77;;;10.77;;
42000;SDS011;27689;48.390;10.856;2024-02-26T06:39:54;18.10;;;12.05;;
42000;SDS011;27689;48.390;10.856;2024-02-26T06:42:38;16.93;;;11.73;;
42000;SDS011;27689;48.390;10.856;2024-02-26T06:45:22;15.48;;;10.23;;
42000;SDS011;27689;48.390;10.856;2024-02-26T06:48:06;14.23;;;10.30;;
42000;SDS011;27689;48.390;10.856;2024-02-26T06:50:50;16.92;;;10.82;;
42000;SDS011;27689;48.390;10.856;2024-02-26T06:53:34;15.18;;;10.98;;
42000;SDS011;27689;48.390;10.856;2024-02-26T06:56:19;18.38;;;12.00;;
42000;SDS011;27689;48.390;10.856;2024-02-26T06:59:02;16.13;;;11.10;;
42000;SDS011;27689;48.390;10.856;2024-02-26T07:01:46;17.98;;;12.02;;
42000;SDS011;27689;48.390;10.856;2024-02-26T07:04:30;15.47;;;11.53;;
42000;SDS011;27689;48.390;10.856;2024-02-26T07:07:17;16.75;;;10.65;;
42000;SDS011;27689;48.390;10.856;2024-02-26T07:10:02;17.80;;;11.02;;
42000;SDS011;27689;48.390;10.856;2024-02-26T07:12:47;15.95;;;11.05;;
42000;SDS011;27689;48.390;10.856;2024-02-26T07:15:31;21.23;;;13.15;;
42000;SDS011;27689;48.390;10.856;2024-02-26T07:18:16;15.77;;;10.93;;
42000;SDS011;27689;48.390;10.856;2024-02-26T07:21:03;18.35;;;10.77;;
42000;SDS011;27689;48.390;10.856;2024-02-26T07:23:47;14.98;;;10.32;;
42000;SDS011;27689;48.390;10.856;2024-02-26T07:26:31;20.38;;;12.23;;
42000;SDS011;27689;48.390;10.856;2024-02-26T07:29:15;14.82;;;10.55;;
42000;SDS011;27689;48.390;10.856;2024-02-26T07:31:59;16.52;;;10.75;;
42000;SDS011;27689;48.390;10.856;2024-02-26T07:34:43;15.02;;;10.55;;
42000;SDS011;27689;48.390;10.856;2024-02-26T07:37:28;16.25;;;10.93;;
42000;SDS011;27689;48.390;10.856;2024-02-26T07:40:12;16.27;;;10.40;;
42000;SDS011;27689;48.390;10.856;2024-02-26T07:42:56;15.75;;;10.25;;
42000;SDS011;27689;48.390;10.856;2024-02-26T07:45:40;17.85;;;10.45;;
42000;SDS011;27689;48.390;10.856;2024-02-26T07:48:24;11.95;;;9.25;;
42000;SDS011;27689;48.390;10.856;2024-02-26T07:51:08;14.73;;;10.00;;
42000;SDS011;27689;48.390;10.856;2024-02-26T07:53:52;16.25;;;10.32;;
42000;SDS011;27689;48.390;10.856;2024-02-26T07:56:36;17.70;;;10.43;;
42000;SDS011;27689;48.390;10.856;2024-02-26T07:59:21;17.05;;;10.02;;
42000;SDS011;27689;48.390;10.856;2024-02-26T08:02:05;17.48;;;9.88;;
42000;SDS011;27689;48.390;10.856;2024-02-26T08:04:49;16.83;;;10.10;;
42000;SDS011;27689;48.390;10.856;2024-02-26T08:07:33;14.77;;;9.88;;
42000;SDS011;27689;48.390;10.856;2024-02-26T08:10:17;15.95;;;10.60;;
42000;SDS011;27689;48.390;10.856;2024-02-26T08:13:01;15.93;;;9.98;;
42000;SDS011;27689;48.390;10.856;2024-02-26T08:15:48;15.05;;;10.52;;
42000;SDS011;27689;48.390;10.856;2024-02-26T08:18:33;14.48;;;9.13;;
42000;SDS011;27689;48.390;10.856;2024-02-26T08:21:16;15.07;;;9.93;;
42000;SDS011;27689;48.390;10.856;2024-02-26T08:24:00;15.33;;;10.13;;
42000;SDS011;27689;48.390;10.856;2024-02-26T08:26:44;14.35;;;9.10;;
42000;SDS011;27689;48.390;10.856;2024-02-26T08:29:28;13.93;;;8.87;;
42000;SDS011;27689;48.390;10.856;2024-02-26T08:32:12;17.85;;;10.05;;
42000;SDS011;27689;48.390;10.856;2024-02-26T08:34:56;17.02;;;10.55;;
42000;SDS011;27689;48.390;10.856;2024-02-26T08:37:40;13.90;;;9.73;;
42000;SDS011;27689;48.390;10.856;2024-02-26T08:40:27;12.63;;;9.20;;
42000;SDS011;27689;48.390;10.856;2024-02-26T08:43:12;15.57;;;9.07;;
42000;SDS011;27689;48.390;10.856;2024-02-26T08:45:59;13.70;;;8.90;;
42000;SDS011;27689;48.390;10.856;2024-02-26T08:48:43;14.43;;;9.32;;
42000;SDS011;27689;48.390;10.856;2024-02-26T08:51:26;12.93;;;8.87;;
42000;SDS011;27689;48.390;10.856;2024-02-26T08:54:10;15.13;;;9.03;;
42000;SDS011;27689;48.390;10.856;2024-02-26T08:56:54;12.73;;;8.80;;
42000;SDS011;27689;48.390;10.856;2024-02-26T08:59:38;14.07;;;9.13;;
42000;SDS011;27689;48.390;10.856;2024-02-26T09:02:22;14.57;;;8.63;;
42000;SDS011;27689;48.390;10.856;2024-02-26T09:05:06;12.02;;;8.70;;
42000;SDS011;27689;48.390;10.856;2024-02-26T09:07:50;14.85;;;9.40;;
42000;SDS011;27689;48.390;10.856;2024-02-26T09:10:35;10.55;;;7.80;;
42000;SDS011;27689;48.390;10.856;2024-02-26T09:13:20;13.85;;;8.77;;
42000;SDS011;27689;48.390;10.856;2024-02-26T09:16:04;11.07;;;7.93;;
42000;SDS011;27689;48.390;10.856;2024-02-26T09:18:49;10.77;;;8.13;;
42000;SDS011;27689;48.390;10.856;2024-02-26T09:21:33;11.53;;;8.30;;
42000;SDS011;27689;48.390;10.856;2024-02-26T09:24:17;10.20;;;7.47;;
42000;SDS011;27689;48.390;10.856;2024-02-26T09:27:01;14.27;;;8.13;;
42000;SDS011;27689;48.390;10.856;2024-02-26T09:29:45;13.30;;;8.50;;
42000;SDS011;27689;48.390;10.856;2024-02-26T09:32:29;11.32;;;7.88;;
42000;SDS011;27689;48.390;10.856;2024-02-26T09:35:14;16.63;;;11.00;;
42000;SDS011;27689;48.390;10.856;2024-02-26T09:37:58;10.57;;;8.00;;
42000;SDS011;27689;48.390;10.856;2024-02-26T09:40:42;11.32;;;8.05;;
42000;SDS011;27689;48.390;10.856;2024-02-26T09:43:26;14.73;;;9.43;;
42000;SDS011;27689;48.390;10.856;2024-02-26T09:46:18;13.85;;;9.10;;
42000;SDS011;27689;48.390;10.856;2024-02-26T09:49:04;13.90;;;8.55;;
42000;SDS011;27689;48.390;10.856;2024-02-26T09:51:49;29.70;;;24.15;;
42000;SDS011;27689;48.390;10.856;2024-02-26T09:54:34;10.57;;;8.60;;
42000;SDS011;27689;48.390;10.856;2024-02-26T09:57:18;14.20;;;8.63;;
42000;SDS011;27689;48.390;10.856;2024-02-26T10:00:03;11.60;;;8.63;;
42000;SDS011;27689;48.390;10.856;2024-02-26T10:02:51;11.50;;;8.25;;
42000;SDS011;27689;48.390;10.856;2024-02-26T10:05:35;12.65;;;8.85;;
42000;SDS011;27689;48.390;10.856;2024-02-26T10:08:21;10.32;;;7.70;;
42000;SDS011;27689;48.390;10.856;2024-02-26T10:11:06;10.45;;;7.28;;
42000;SDS011;27689;48.390;10.856;2024-02-26T10:13:51;13.65;;;9.10;;
42000;SDS011;27689;48.390;10.856;2024-02-26T10:16:35;15.48;;;12.30;;
42000;SDS011;27689;48.390;10.856;2024-02-26T10:19:27;13.15;;;7.32;;
42000;SDS011;27689;48.390;10.856;2024-02-26T10:22:12;10.95;;;7.72;;
42000;SDS011;27689;48.390;10.856;2024-02-26T10:24:56;10.43;;;7.70;;
42000;SDS011;27689;48.390;10.856;2024-02-26T10:27:41;9.98;;;7.07;;
42000;SDS011;27689;48.390;10.856;2024-02-26T10:30:28;11.23;;;7.45;;
42000;SDS011;27689;48.390;10.856;2024-02-26T10:33:12;7.47;;;5.95;;
42000;SDS011;27689;48.390;10.856;2024-02-26T10:35:58;9.38;;;6.00;;
42000;SDS011;27689;48.390;10.856;2024-02-26T10:38:42;10.65;;;6.40;;
42000;SDS011;27689;48.390;10.856;2024-02-26T10:41:26;10.03;;;6.80;;
42000;SDS011;27689;48.390;10.856;2024-02-26T10:44:11;8.82;;;6.80;;
42000;SDS011;27689;48.390;10.856;2024-02-26T10:46:56;10.95;;;8.05;;
42000;SDS011;27689;48.390;10.856;2024-02-26T10:49:44;13.98;;;8.13;;
42000;SDS011;27689;48.390;10.856;2024-02-26T10:52:33;12.85;;;8.20;;
42000;SDS011;27689;48.390;10.856;2024-02-26T10:55:18;11.80;;;8.10;;
42000;SDS011;27689;48.390;10.856;2024-02-26T10:58:05;11.88;;;8.00;;
42000;SDS011;27689;48.390;10.856;2024-02-26T11:00:52;11.52;;;8.35;;
42000;SDS011;27689;48.390;10.856;2024-02-26T11:03:36;10.98;;;7.80;;
42000;SDS011;27689;48.390;10.856;2024-02-26T11:06:22;16.00;;;8.57;;
42000;SDS011;27689;48.390;10.856;2024-02-26T11:09:07;11.57;;;8.52;;
42000;SDS011;27689;48.390;10.856;2024-02-26T11:11:57;10.15;;;8.13;;
42000;SDS011;27689;48.390;10.856;2024-02-26T11:14:42;12.40;;;8.02;;
42000;SDS011;27689;48.390;10.856;2024-02-26T11:17:29;10.10;;;7.57;;
42000;SDS011;27689;48.390;10.856;2024-02-26T11:20:17;12.18;;;7.82;;
42000;SDS011;27689;48.390;10.856;2024-02-26T11:23:03;11.38;;;8.13;;
42000;SDS011;27689;48.390;10.856;2024-02-26T11:25:47;12.45;;;8.57;;
42000;SDS011;27689;48.390;10.856;2024-02-26T11:28:32;12.02;;;8.32;;
42000;SDS011;27689;48.390;10.856;2024-02-26T11:31:18;12.85;;;7.93;;
42000;SDS011;27689;48.390;10.856;2024-02-26T11:34:09;12.85;;;9.73;;
42000;SDS011;27689;48.390;10.856;2024-02-26T11:36:54;13.90;;;9.43;;
42000;SDS011;27689;48.390;10.856;2024-02-26T11:39:40;12.90;;;7.20;;
42000;SDS011;27689;48.390;10.856;2024-02-26T11:48:25;22.77;;;12.95;;
42000;SDS011;27689;48.390;10.856;2024-02-26T11:51:12;19.42;;;12.38;;
42000;SDS011;27689;48.390;10.856;2024-02-26T11:53:58;10.38;;;7.25;;
42000;SDS011;27689;48.390;10.856;2024-02-26T11:56:42;12.45;;;7.03;;
42000;SDS011;27689;48.390;10.856;2024-02-26T11:59:38;10.60;;;6.15;;
42000;SDS011;27689;48.390;10.856;2024-02-26T12:05:27;9.32;;;6.05;;
42000;SDS011;27689;48.390;10.856;2024-02-26T12:08:14;10.18;;;6.07;;
42000;SDS011;27689;48.390;10.856;2024-02-26T12:11:01;8.63;;;6.20;;
42000;SDS011;27689;48.390;10.856;2024-02-26T12:13:49;7.65;;;5.55;;
42000;SDS011;27689;48.390;10.856;2024-02-26T12:16:37;7.10;;;5.55;;
42000;SDS011;27689;48.390;10.856;2024-02-26T12:19:22;7.72;;;5.53;;
42000;SDS011;27689;48.390;10.856;2024-02-26T12:22:07;9.02;;;6.10;;
42000;SDS011;27689;48.390;10.856;2024-02-26T12:24:59;10.65;;;7.22;;
42000;SDS011;27689;48.390;10.856;2024-02-26T12:27:44;13.32;;;8.73;;
42000;SDS011;27689;48.390;10.856;2024-02-26T12:30:28;10.03;;;7.23;;
42000;SDS011;27689;48.390;10.856;2024-02-26T12:33:14;12.82;;;7.40;;
42000;SDS011;27689;48.390;10.856;2024-02-26T12:35:58;9.77;;;7.37;;
42000;SDS011;27689;48.390;10.856;2024-02-26T12:38:42;11.63;;;7.90;;
42000;SDS011;27689;48.390;10.856;2024-02-26T12:41:27;11.18;;;6.65;;
42000;SDS011;27689;48.390;10.856;2024-02-26T12:44:13;10.70;;;7.15;;
42000;SDS011;27689;48.390;10.856;2024-02-26T12:47:01;10.88;;;6.70;;
42000;SDS011;27689;48.390;10.856;2024-02-26T12:49:49;7.65;;;5.55;;
42000;SDS011;27689;48.390;10.856;2024-02-26T12:52:34;8.43;;;5.47;;
42000;SDS011;27689;48.390;10.856;2024-02-26T12:55:20;6.40;;;4.50;;
42000;SDS011;27689;48.390;10.856;2024-02-26T12:58:04;6.18;;;4.53;;
42000;SDS011;27689;48.390;10.856;2024-02-26T13:00:49;10.07;;;4.60;;
42000;SDS011;27689;48.390;10.856;2024-02-26T13:03:34;7.32;;;5.80;;
42000;SDS011;27689;48.390;10.856;2024-02-26T13:06:19;7.63;;;5.38;;
42000;SDS011;27689;48.390;10.856;2024-02-26T13:09:05;8.10;;;5.40;;
42000;SDS011;27689;48.390;10.856;2024-02-26T13:11:55;8.35;;;5.63;;
42000;SDS011;27689;48.390;10.856;2024-02-26T13:14:39;8.18;;;5.63;;
42000;SDS011;27689;48.390;10.856;2024-02-26T13:17:23;8.83;;;6.07;;
42000;SDS011;27689;48.390;10.856;2024-02-26T13:20:08;9.18;;;6.85;;
42000;SDS011;27689;48.390;10.856;2024-02-26T13:23:03;10.35;;;6.82;;
42000;SDS011;27689;48.390;10.856;2024-02-26T13:25:49;7.53;;;6.07;;
42000;SDS011;27689;48.390;10.856;2024-02-26T13:28:40;7.60;;;5.88;;
42000;SDS011;27689;48.390;10.856;2024-02-26T13:31:24;7.97;;;6.57;;
42000;SDS011;27689;48.390;10.856;2024-02-26T13:34:08;8.50;;;6.30;;
42000;SDS011;27689;48.390;10.856;2024-02-26T13:36:53;9.23;;;6.65;;
42000;SDS011;27689;48.390;10.856;2024-02-26T13:39:37;9.30;;;7.03;;
42000;SDS011;27689;48.390;10.856;2024-02-26T13:42:21;9.23;;;6.50;;
42000;SDS011;27689;48.390;10.856;2024-02-26T13:45:05;9.02;;;6.65;;
42000;SDS011;27689;48.390;10.856;2024-02-26T13:47:50;8.40;;;5.90;;
42000;SDS011;27689;48.390;10.856;2024-02-26T13:50:34;9.45;;;5.82;;
42000;SDS011;27689;48.390;10.856;2024-02-26T13:53:18;8.15;;;6.13;;
42000;SDS011;27689;48.390;10.856;2024-02-26T13:58:49;8.65;;;6.47;;
42000;SDS011;27689;48.390;10.856;2024-02-26T14:01:33;10.35;;;7.00;;
42000;SDS011;27689;48.390;10.856;2024-02-26T14:04:17;11.13;;;6.53;;
42000;SDS011;27689;48.390;10.856;2024-02-26T14:07:01;9.57;;;6.80;;
42000;SDS011;27689;48.390;10.856;2024-02-26T14:09:46;8.02;;;5.88;;
42000;SDS011;27689;48.390;10.856;2024-02-26T14:12:30;8.25;;;6.43;;
42000;SDS011;27689;48.390;10.856;2024-02-26T14:15:14;10.83;;;6.27;;
42000;SDS011;27689;48.390;10.856;2024-02-26T14:17:57;9.80;;;6.22;;
42000;SDS011;27689;48.390;10.856;2024-02-26T14:20:42;8.90;;;6.22;;
42000;SDS011;27689;48.390;10.856;2024-02-26T14:23:26;9.40;;;6.65;;
42000;SDS011;27689;48.390;10.856;2024-02-26T14:26:10;9.27;;;6.40;;
42000;SDS011;27689;48.390;10.856;2024-02-26T14:28:55;9.40;;;6.32;;
42000;SDS011;27689;48.390;10.856;2024-02-26T14:31:39;9.32;;;6.63;;
42000;SDS011;27689;48.390;10.856;2024-02-26T14:34:24;8.95;;;6.88;;
42000;SDS011;27689;48.390;10.856;2024-02-26T14:37:08;10.38;;;6.93;;
42000;SDS011;27689;48.390;10.856;2024-02-26T14:39:52;7.65;;;6.00;;
42000;SDS011;27689;48.390;10.856;2024-02-26T14:42:36;10.20;;;7.38;;
42000;SDS011;27689;48.390;10.856;2024-02-26T14:45:21;10.13;;;7.13;;
42000;SDS011;27689;48.390;10.856;2024-02-26T14:48:05;11.13;;;6.78;;
42000;SDS011;27689;48.390;10.856;2024-02-26T14:50:49;10.32;;;6.95;;
42000;SDS011;27689;48.390;10.856;2024-02-26T14:56:19;9.43;;;7.38;;
42000;SDS011;27689;48.390;10.856;2024-02-26T14:59:03;11.40;;;7.70;;
42000;SDS011;27689;48.390;10.856;2024-02-26T15:01:46;12.02;;;8.20;;
42000;SDS011;27689;48.390;10.856;2024-02-26T15:04:31;11.00;;;8.10;;
42000;SDS011;27689;48.390;10.856;2024-02-26T15:07:15;8.50;;;6.90;;
42000;SDS011;27689;48.390;10.856;2024-02-26T15:09:58;15.82;;;7.78;;
42000;SDS011;27689;48.390;10.856;2024-02-26T15:12:44;9.68;;;7.68;;
42000;SDS011;27689;48.390;10.856;2024-02-26T15:15:28;13.05;;;8.48;;
42000;SDS011;27689;48.390;10.856;2024-02-26T15:18:12;11.30;;;8.70;;
42000;SDS011;27689;48.390;10.856;2024-02-26T15:20:59;11.35;;;8.73;;
42000;SDS011;27689;48.390;10.856;2024-02-26T15:23:43;12.97;;;8.77;;
42000;SDS011;27689;48.390;10.856;2024-02-26T15:26:30;12.77;;;8.18;;
42000;SDS011;27689;48.390;10.856;2024-02-26T15:29:14;10.77;;;7.57;;
42000;SDS011;27689;48.390;10.856;2024-02-26T15:31:58;11.07;;;8.30;;
42000;SDS011;27689;48.390;10.856;2024-02-26T15:34:42;11.05;;;7.93;;
42000;SDS011;27689;48.390;10.856;2024-02-26T15:37:26;11.13;;;8.00;;
42000;SDS011;27689;48.390;10.856;2024-02-26T15:40:10;11.00;;;8.10;;
42000;SDS011;27689;48.390;10.856;2024-02-26T15:42:55;12.13;;;8.57;;
42000;SDS011;27689;48.390;10.856;2024-02-26T15:45:39;9.27;;;7.33;;
42000;SDS011;27689;48.390;10.856;2024-02-26T15:48:23;12.85;;;9.80;;
42000;SDS011;27689;48.390;10.856;2024-02-26T15:51:06;10.93;;;9.03;;
42000;SDS011;27689;48.390;10.856;2024-02-26T15:53:51;13.40;;;9.47;;
42000;SDS011;27689;48.390;10.856;2024-02-26T15:56:35;13.48;;;8.40;;
42000;SDS011;27689;48.390;10.856;2024-02-26T15:59:20;12.93;;;8.65;;
42000;SDS011;27689;48.390;10.856;2024-02-26T16:02:04;13.43;;;8.82;;
42000;SDS011;27689;48.390;10.856;2024-02-26T16:04:49;10.77;;;8.00;;
42000;SDS011;27689;48.390;10.856;2024-02-26T16:10:33;12.57;;;7.78;;
42000;SDS011;27689;48.390;10.856;2024-02-26T16:13:17;9.90;;;8.00;;
42000;SDS011;27689;48.390;10.856;2024-02-26T16:16:05;9.07;;;7.50;;
42000;SDS011;27689;48.390;10.856;2024-02-26T16:18:58;12.05;;;7.25;;
42000;SDS011;27689;48.390;10.856;2024-02-26T16:21:50;11.35;;;8.18;;
42000;SDS011;27689;48.390;10.856;2024-02-26T16:24:34;12.87;;;8.40;;